createdAt,value
2018-08-13T00:00:17.466Z,20.86
2018-08-13T00:01:17.470Z,20.88
2018-08-13T00:02:17.436Z,20.88
2018-08-13T00:03:17.421Z,20.80
2018-08-13T00:04:17.510Z,20.86
2018-08-13T00:05:17.394Z,20.89
2018-08-13T00:06:17.383Z,20.83
2018-08-13T00:07:17.371Z,20.86
2018-08-13T00:08:17.355Z,20.85
2018-08-13T00:09:17.339Z,20.86
2018-08-13T00:10:17.329Z,20.89
2018-08-13T00:11:17.320Z,20.86
2018-08-13T00:12:17.299Z,20.88
2018-08-13T00:13:17.288Z,20.88
2018-08-13T00:14:17.273Z,20.92
2018-08-13T00:15:17.266Z,20.89
2018-08-13T00:16:17.244Z,20.90
2018-08-13T00:17:17.234Z,20.85
2018-08-13T00:18:17.216Z,20.89
2018-08-13T00:19:17.202Z,20.89
2018-08-13T00:20:17.325Z,20.88
2018-08-13T00:21:17.174Z,20.92
2018-08-13T00:22:17.165Z,20.90
2018-08-13T00:23:17.222Z,20.82
2018-08-13T00:24:17.145Z,20.90
2018-08-13T00:25:17.122Z,20.88
2018-08-13T00:26:17.112Z,20.88
2018-08-13T00:27:17.096Z,20.86
2018-08-13T00:28:17.082Z,20.88
2018-08-13T00:29:17.086Z,20.82
2018-08-13T00:30:17.054Z,20.86
2018-08-13T00:31:17.040Z,20.89
2018-08-13T00:32:17.030Z,20.93
2018-08-13T00:33:17.017Z,20.92
2018-08-13T00:34:17.008Z,20.95
2018-08-13T00:35:16.983Z,21.03
2018-08-13T00:36:17.047Z,20.96
2018-08-13T00:37:16.967Z,20.95
2018-08-13T00:38:16.954Z,20.95
2018-08-13T00:39:16.932Z,21.01
2018-08-13T00:40:16.919Z,20.98
2018-08-13T00:41:16.905Z,20.98
2018-08-13T00:42:16.891Z,21.04
2018-08-13T00:43:16.874Z,21.03
2018-08-13T00:44:16.864Z,21.03
2018-08-13T00:45:16.851Z,21.00
2018-08-13T00:46:16.836Z,21.01
2018-08-13T00:47:16.869Z,21.05
2018-08-13T00:48:16.810Z,21.00
2018-08-13T00:49:16.793Z,21.04
2018-08-13T00:50:16.781Z,20.98
2018-08-13T00:51:16.773Z,21.04
2018-08-13T00:52:16.766Z,21.00
2018-08-13T00:53:16.738Z,21.00
2018-08-13T00:54:16.729Z,21.01
2018-08-13T00:55:16.722Z,21.00
2018-08-13T00:56:16.699Z,21.00
2018-08-13T00:57:16.687Z,20.92
2018-08-13T00:58:16.674Z,20.86
2018-08-13T00:59:16.657Z,20.88
2018-08-13T01:00:16.657Z,20.85
2018-08-13T01:01:16.631Z,20.77
2018-08-13T01:02:16.618Z,20.78
2018-08-13T01:03:16.722Z,20.75
2018-08-13T01:04:16.591Z,20.68
2018-08-13T01:05:16.584Z,20.68
2018-08-13T01:06:16.596Z,20.66
2018-08-13T01:07:16.550Z,20.55
2018-08-13T01:08:16.538Z,20.58
2018-08-13T01:09:16.522Z,20.64
2018-08-13T01:10:16.505Z,20.64
2018-08-13T01:11:16.499Z,20.63
2018-08-13T01:12:16.479Z,20.56
2018-08-13T01:13:16.466Z,20.56
2018-08-13T01:14:16.453Z,20.55
2018-08-13T01:15:16.438Z,20.59
2018-08-13T01:16:16.426Z,20.46
2018-08-13T01:17:16.411Z,20.58
2018-08-13T01:18:16.397Z,20.42
2018-08-13T01:19:16.459Z,20.39
2018-08-13T01:20:16.370Z,20.46
2018-08-13T01:21:16.364Z,20.56
2018-08-13T01:22:16.444Z,20.44
2018-08-13T01:23:16.336Z,20.50
2018-08-13T01:24:16.316Z,20.49
2018-08-13T01:25:16.299Z,20.40
2018-08-13T01:26:16.289Z,20.40
2018-08-13T01:27:16.275Z,20.39
2018-08-13T01:28:16.262Z,20.50
2018-08-13T01:29:16.246Z,20.42
2018-08-13T01:30:16.231Z,20.40
2018-08-13T01:31:16.218Z,20.37
2018-08-13T01:32:16.205Z,20.42
2018-08-13T01:33:16.191Z,20.56
2018-08-13T01:34:16.175Z,20.56
2018-08-13T01:35:16.165Z,20.60
2018-08-13T01:36:16.148Z,20.49
2018-08-13T01:37:16.135Z,20.48
2018-08-13T01:38:16.119Z,20.40
2018-08-13T01:39:16.108Z,20.42
2018-08-13T01:40:16.095Z,20.48
2018-08-13T01:41:16.117Z,20.50
2018-08-13T01:42:16.064Z,20.50
2018-08-13T01:43:16.141Z,20.53
2018-08-13T01:44:16.044Z,20.50
2018-08-13T01:45:16.024Z,20.55
2018-08-13T01:46:16.170Z,20.53
2018-08-13T01:47:15.993Z,20.46
2018-08-13T01:48:15.992Z,20.44
2018-08-13T01:49:15.967Z,20.55
2018-08-13T01:50:15.953Z,20.55
2018-08-13T01:51:15.944Z,20.44
2018-08-13T01:52:15.925Z,20.39
2018-08-13T01:53:15.918Z,20.44
2018-08-13T01:54:15.902Z,20.44
2018-08-13T01:55:15.884Z,20.39
2018-08-13T01:56:15.868Z,20.56
2018-08-13T01:57:15.857Z,20.56
2018-08-13T01:58:15.843Z,20.52
2018-08-13T01:59:15.830Z,20.55
2018-08-13T02:00:15.814Z,20.52
2018-08-13T02:01:15.858Z,20.56
2018-08-13T02:02:15.791Z,20.60
2018-08-13T02:03:15.776Z,20.58
2018-08-13T02:04:15.768Z,20.56
2018-08-13T02:05:15.749Z,20.58
2018-08-13T02:06:15.740Z,20.42
2018-08-13T02:07:15.717Z,20.52
2018-08-13T02:08:15.713Z,20.40
2018-08-13T02:09:15.692Z,20.46
2018-08-13T02:10:15.676Z,20.46
2018-08-13T02:11:15.664Z,20.42
2018-08-13T02:12:15.652Z,20.33
2018-08-13T02:13:15.635Z,20.36
2018-08-13T02:14:15.631Z,20.36
2018-08-13T02:15:15.614Z,20.39
2018-08-13T02:16:15.594Z,20.34
2018-08-13T02:17:15.581Z,20.32
2018-08-13T02:18:15.564Z,20.34
2018-08-13T02:19:15.549Z,20.32
2018-08-13T02:20:15.539Z,20.34
2018-08-13T02:21:15.674Z,20.36
2018-08-13T02:22:15.510Z,20.42
2018-08-13T02:23:15.499Z,20.37
2018-08-13T02:24:15.479Z,20.39
2018-08-13T02:25:15.470Z,20.40
2018-08-13T02:26:15.590Z,20.46
2018-08-13T02:27:15.442Z,20.36
2018-08-13T02:28:15.429Z,20.34
2018-08-13T02:29:15.507Z,20.33
2018-08-13T02:30:15.399Z,20.32
2018-08-13T02:31:15.384Z,20.33
2018-08-13T02:32:15.370Z,20.32
2018-08-13T02:33:15.353Z,20.36
2018-08-13T02:34:15.342Z,20.32
2018-08-13T02:35:15.325Z,20.26
2018-08-13T02:36:15.320Z,20.22
2018-08-13T02:37:15.297Z,20.26
2018-08-13T02:38:15.289Z,20.21
2018-08-13T02:39:15.399Z,20.30
2018-08-13T02:40:15.258Z,20.24
2018-08-13T02:41:15.246Z,20.26
2018-08-13T02:42:15.230Z,20.30
2018-08-13T02:43:15.221Z,20.30
2018-08-13T02:44:15.200Z,20.32
2018-08-13T02:45:15.190Z,20.29
2018-08-13T02:46:15.171Z,20.21
2018-08-13T02:47:15.164Z,20.21
2018-08-13T02:48:15.146Z,20.21
2018-08-13T02:49:15.131Z,20.15
2018-08-13T02:50:15.117Z,20.17
2018-08-13T02:51:15.104Z,20.14
2018-08-13T02:52:15.089Z,20.19
2018-08-13T02:53:15.073Z,20.10
2018-08-13T02:54:15.063Z,20.11
2018-08-13T02:55:15.046Z,20.03
2018-08-13T02:56:15.037Z,20.00
2018-08-13T02:57:15.019Z,20.03
2018-08-13T02:58:15.067Z,20.02
2018-08-13T02:59:14.998Z,19.97
2018-08-13T03:00:14.980Z,19.93
2018-08-13T03:01:14.966Z,20.03
2018-08-13T03:02:14.949Z,20.02
2018-08-13T03:03:14.937Z,20.03
2018-08-13T03:04:14.983Z,20.00
2018-08-13T03:05:14.906Z,20.02
2018-08-13T03:06:14.889Z,20.00
2018-08-13T03:07:14.942Z,20.08
2018-08-13T03:08:14.862Z,20.04
2018-08-13T03:09:14.847Z,20.07
2018-08-13T03:10:14.835Z,20.12
2018-08-13T03:11:14.825Z,20.17
2018-08-13T03:12:14.814Z,20.10
2018-08-13T03:13:14.793Z,20.11
2018-08-13T03:14:14.785Z,20.17
2018-08-13T03:15:14.776Z,20.19
2018-08-13T03:16:14.749Z,20.19
2018-08-13T03:17:14.740Z,20.14
2018-08-13T03:18:14.720Z,20.15
2018-08-13T03:19:14.713Z,20.15
2018-08-13T03:20:14.692Z,20.19
2018-08-13T03:21:14.676Z,20.17
2018-08-13T03:22:14.692Z,20.19
2018-08-13T03:23:14.657Z,20.19
2018-08-13T03:24:14.636Z,20.21
2018-08-13T03:25:14.620Z,20.17
2018-08-13T03:26:14.605Z,20.17
2018-08-13T03:27:14.600Z,20.21
2018-08-13T03:28:14.634Z,20.17
2018-08-13T03:29:14.562Z,20.33
2018-08-13T03:30:14.568Z,20.19
2018-08-13T03:31:14.536Z,20.17
2018-08-13T03:32:14.523Z,20.21
2018-08-13T03:33:14.507Z,20.18
2018-08-13T03:34:14.500Z,20.22
2018-08-13T03:35:14.484Z,20.21
2018-08-13T03:36:14.467Z,20.15
2018-08-13T03:37:14.451Z,20.14
2018-08-13T03:38:14.436Z,20.11
2018-08-13T03:39:14.421Z,20.11
2018-08-13T03:40:14.411Z,20.02
2018-08-13T03:41:14.392Z,20.04
2018-08-13T03:42:14.382Z,20.08
2018-08-13T03:43:14.370Z,20.03
2018-08-13T03:44:14.353Z,20.03
2018-08-13T03:45:14.335Z,20.11
2018-08-13T03:46:14.323Z,20.02
2018-08-13T03:47:14.420Z,19.99
2018-08-13T03:48:14.298Z,19.93
2018-08-13T03:49:14.285Z,19.77
2018-08-13T03:50:14.288Z,19.81
2018-08-13T03:51:14.250Z,19.89
2018-08-13T03:52:14.249Z,19.85
2018-08-13T03:53:14.223Z,19.85
2018-08-13T03:54:14.208Z,19.82
2018-08-13T03:55:14.193Z,19.89
2018-08-13T03:56:14.179Z,19.84
2018-08-13T03:57:14.164Z,19.84
2018-08-13T03:58:14.155Z,19.78
2018-08-13T03:59:14.141Z,19.75
2018-08-13T04:00:14.121Z,19.79
2018-08-13T04:01:14.119Z,19.81
2018-08-13T04:02:14.091Z,19.71
2018-08-13T04:03:14.086Z,19.72
2018-08-13T04:04:14.075Z,19.74
2018-08-13T04:05:14.047Z,19.63
2018-08-13T04:06:14.039Z,19.71
2018-08-13T04:07:14.019Z,19.79
2018-08-13T04:08:14.007Z,19.77
2018-08-13T04:09:13.991Z,19.70
2018-08-13T04:10:13.978Z,19.78
2018-08-13T04:11:14.020Z,19.81
2018-08-13T04:12:13.961Z,19.82
2018-08-13T04:13:13.936Z,19.82
2018-08-13T04:14:13.921Z,19.78
2018-08-13T04:15:13.907Z,19.89
2018-08-13T04:16:13.892Z,19.92
2018-08-13T04:17:13.877Z,19.82
2018-08-13T04:18:13.866Z,19.78
2018-08-13T04:19:13.847Z,19.78
2018-08-13T04:20:13.838Z,19.66
2018-08-13T04:21:13.819Z,19.82
2018-08-13T04:22:13.806Z,19.66
2018-08-13T04:23:13.790Z,19.67
2018-08-13T04:24:13.776Z,19.75
2018-08-13T04:25:13.763Z,19.71
2018-08-13T04:26:13.746Z,19.77
2018-08-13T04:27:13.730Z,19.72
2018-08-13T04:28:13.720Z,19.77
2018-08-13T04:29:13.704Z,19.79
2018-08-13T04:30:13.797Z,19.81
2018-08-13T04:31:13.675Z,19.79
2018-08-13T04:32:13.665Z,19.75
2018-08-13T04:33:13.645Z,19.75
2018-08-13T04:34:13.635Z,19.87
2018-08-13T04:35:13.616Z,19.81
2018-08-13T04:36:13.604Z,19.89
2018-08-13T04:37:13.587Z,19.78
2018-08-13T04:38:13.576Z,19.78
2018-08-13T04:39:13.558Z,19.92
2018-08-13T04:40:13.545Z,19.96
2018-08-13T04:41:13.529Z,19.96
2018-08-13T04:42:13.516Z,19.93
2018-08-13T04:43:13.504Z,20.10
2018-08-13T04:44:13.487Z,20.12
2018-08-13T04:45:13.475Z,20.11
2018-08-13T04:46:13.511Z,20.15
2018-08-13T04:47:13.444Z,20.17
2018-08-13T04:48:13.434Z,20.29
2018-08-13T04:49:13.444Z,20.26
2018-08-13T04:50:13.404Z,20.30
2018-08-13T04:51:13.388Z,20.24
2018-08-13T04:52:13.406Z,20.29
2018-08-13T04:53:13.368Z,20.24
2018-08-13T04:54:13.343Z,20.19
2018-08-13T04:55:13.339Z,20.12
2018-08-13T04:56:13.320Z,20.19
2018-08-13T04:57:13.353Z,20.17
2018-08-13T04:58:13.289Z,20.19
2018-08-13T04:59:13.281Z,20.26
2018-08-13T05:00:13.262Z,20.34
2018-08-13T05:01:13.248Z,20.33
2018-08-13T05:02:13.233Z,20.33
2018-08-13T05:03:13.226Z,20.34
2018-08-13T05:04:13.203Z,20.32
2018-08-13T05:05:13.193Z,20.34
2018-08-13T05:06:13.184Z,20.33
2018-08-13T05:07:13.183Z,20.34
2018-08-13T05:08:13.147Z,20.26
2018-08-13T05:09:13.131Z,20.33
2018-08-13T05:10:13.161Z,20.34
2018-08-13T05:11:13.109Z,20.34
2018-08-13T05:12:13.093Z,20.39
2018-08-13T05:13:13.122Z,20.37
2018-08-13T05:14:13.060Z,20.39
2018-08-13T05:15:13.046Z,20.40
2018-08-13T05:16:13.033Z,20.39
2018-08-13T05:17:13.020Z,20.37
2018-08-13T05:18:13.006Z,20.30
2018-08-13T05:19:12.994Z,20.32
2018-08-13T05:20:12.977Z,20.32
2018-08-13T05:21:13.018Z,20.33
2018-08-13T05:22:12.953Z,20.36
2018-08-13T05:23:12.937Z,20.21
2018-08-13T05:24:12.919Z,20.30
2018-08-13T05:25:12.905Z,20.24
2018-08-13T05:26:12.902Z,20.34
2018-08-13T05:27:12.880Z,20.34
2018-08-13T05:28:12.866Z,20.33
2018-08-13T05:29:13.017Z,20.39
2018-08-13T05:30:12.867Z,20.40
2018-08-13T05:31:12.827Z,20.42
2018-08-13T05:32:12.809Z,20.39
2018-08-13T05:33:12.800Z,20.44
2018-08-13T05:34:12.789Z,20.55
2018-08-13T05:35:12.770Z,20.52
2018-08-13T05:36:12.754Z,20.63
2018-08-13T05:37:12.738Z,20.70
2018-08-13T05:38:12.763Z,20.78
2018-08-13T05:39:12.718Z,20.68
2018-08-13T05:40:12.698Z,20.80
2018-08-13T05:41:12.680Z,20.89
2018-08-13T05:42:12.669Z,20.86
2018-08-13T05:43:12.653Z,20.88
2018-08-13T05:44:12.647Z,20.93
2018-08-13T05:45:12.637Z,20.86
2018-08-13T05:46:12.612Z,20.92
2018-08-13T05:47:12.600Z,20.85
2018-08-13T05:48:12.585Z,20.85
2018-08-13T05:49:12.577Z,20.88
2018-08-13T05:50:12.564Z,21.01
2018-08-13T05:51:12.549Z,21.01
2018-08-13T05:52:12.530Z,21.03
2018-08-13T05:53:12.606Z,21.11
2018-08-13T05:54:12.500Z,21.03
2018-08-13T05:55:12.489Z,21.04
2018-08-13T05:56:12.486Z,20.98
2018-08-13T05:57:12.461Z,21.07
2018-08-13T05:58:12.456Z,21.03
2018-08-13T05:59:12.435Z,21.01
2018-08-13T06:00:12.426Z,21.01
2018-08-13T06:01:12.405Z,21.13
2018-08-13T06:02:12.391Z,21.05
2018-08-13T06:03:12.542Z,21.07
2018-08-13T06:04:12.365Z,21.14
2018-08-13T06:05:12.368Z,21.23
2018-08-13T06:06:12.336Z,21.22
2018-08-13T06:07:12.325Z,21.23
2018-08-13T06:08:12.314Z,21.22
2018-08-13T06:09:12.295Z,21.25
2018-08-13T06:10:12.284Z,21.19
2018-08-13T06:11:12.292Z,21.19
2018-08-13T06:12:12.267Z,21.10
2018-08-13T06:13:12.244Z,21.13
2018-08-13T06:14:12.235Z,21.07
2018-08-13T06:15:12.237Z,21.14
2018-08-13T06:16:12.204Z,21.05
2018-08-13T06:17:12.187Z,21.04
2018-08-13T06:18:12.267Z,21.04
2018-08-13T06:19:12.160Z,21.04
2018-08-13T06:20:12.147Z,21.03
2018-08-13T06:21:12.131Z,21.04
2018-08-13T06:22:12.118Z,21.03
2018-08-13T06:23:12.112Z,21.05
2018-08-13T06:24:12.098Z,21.04
2018-08-13T06:25:12.089Z,21.04
2018-08-13T06:26:12.073Z,21.05
2018-08-13T06:27:12.051Z,21.04
2018-08-13T06:28:12.219Z,21.11
2018-08-13T06:29:12.024Z,21.15
2018-08-13T06:30:12.084Z,21.17
2018-08-13T06:31:12.022Z,21.25
2018-08-13T06:32:11.985Z,21.35
2018-08-13T06:33:11.980Z,21.38
2018-08-13T06:34:11.957Z,21.43
2018-08-13T06:35:11.942Z,21.38
2018-08-13T06:36:11.960Z,21.32
2018-08-13T06:37:11.950Z,21.33
2018-08-13T06:38:11.903Z,21.22
2018-08-13T06:39:11.943Z,21.08
2018-08-13T06:40:11.876Z,21.05
2018-08-13T06:41:11.862Z,21.05
2018-08-13T06:42:11.851Z,21.01
2018-08-13T06:43:11.836Z,20.96
2018-08-13T06:44:11.825Z,21.00
2018-08-13T06:45:11.810Z,21.04
2018-08-13T06:46:11.795Z,21.05
2018-08-13T06:47:11.846Z,21.00
2018-08-13T06:48:11.770Z,21.08
2018-08-13T06:49:11.770Z,21.13
2018-08-13T06:50:11.749Z,21.08
2018-08-13T06:51:11.729Z,21.14
2018-08-13T06:52:11.720Z,21.11
2018-08-13T06:53:11.704Z,20.93
2018-08-13T06:54:11.697Z,20.93
2018-08-13T06:55:11.695Z,20.93
2018-08-13T06:56:11.668Z,21.00
2018-08-13T06:57:11.649Z,20.93
2018-08-13T06:58:11.638Z,20.92
2018-08-13T06:59:11.623Z,20.82
2018-08-13T07:00:11.614Z,20.88
2018-08-13T07:01:11.599Z,20.86
2018-08-13T07:02:11.584Z,20.86
2018-08-13T07:03:11.572Z,20.80
2018-08-13T07:04:11.559Z,20.90
2018-08-13T07:05:11.548Z,20.90
2018-08-13T07:06:11.586Z,20.98
2018-08-13T07:07:11.517Z,21.05
2018-08-13T07:08:11.513Z,21.01
2018-08-13T07:09:11.501Z,21.11
2018-08-13T07:10:11.480Z,21.07
2018-08-13T07:11:11.601Z,21.35
2018-08-13T07:12:11.454Z,21.32
2018-08-13T07:13:11.438Z,21.35
2018-08-13T07:14:11.498Z,21.38
2018-08-13T07:15:11.425Z,21.45
2018-08-13T07:16:11.417Z,21.43
2018-08-13T07:17:11.387Z,21.37
2018-08-13T07:18:11.386Z,21.23
2018-08-13T07:19:11.361Z,21.11
2018-08-13T07:20:11.349Z,21.14
2018-08-13T07:21:11.336Z,21.13
2018-08-13T07:22:11.363Z,20.98
2018-08-13T07:23:11.308Z,21.10
2018-08-13T07:24:11.297Z,21.11
2018-08-13T07:25:11.325Z,21.10
2018-08-13T07:26:11.268Z,21.08
2018-08-13T07:27:11.257Z,21.15
2018-08-13T07:28:11.276Z,21.07
2018-08-13T07:29:11.239Z,20.86
2018-08-13T07:30:11.219Z,20.90
2018-08-13T07:31:11.222Z,20.88
2018-08-13T07:32:11.195Z,20.88
2018-08-13T07:33:11.176Z,20.88
2018-08-13T07:34:11.165Z,20.95
2018-08-13T07:35:11.161Z,20.86
2018-08-13T07:36:11.143Z,20.86
2018-08-13T07:37:11.124Z,20.82
2018-08-13T07:38:11.260Z,20.75
2018-08-13T07:39:11.138Z,20.86
2018-08-13T07:40:11.096Z,20.88
2018-08-13T07:41:11.083Z,20.66
2018-08-13T07:42:11.078Z,20.56
2018-08-13T07:43:11.048Z,20.68
2018-08-13T07:44:11.034Z,20.75
2018-08-13T07:45:11.019Z,20.75
2018-08-13T07:46:11.011Z,20.71
2018-08-13T07:47:10.994Z,20.74
2018-08-13T07:48:10.980Z,20.82
2018-08-13T07:49:10.967Z,20.73
2018-08-13T07:50:10.953Z,20.73
2018-08-13T07:51:10.952Z,20.82
2018-08-13T07:52:10.926Z,20.77
2018-08-13T07:53:10.913Z,20.86
2018-08-13T07:54:10.998Z,20.86
2018-08-13T07:55:10.887Z,20.89
2018-08-13T07:56:10.873Z,21.04
2018-08-13T07:57:10.874Z,21.08
2018-08-13T07:58:10.849Z,21.13
2018-08-13T07:59:10.845Z,21.14
2018-08-13T08:00:10.827Z,21.20
2018-08-13T08:01:10.807Z,21.20
2018-08-13T08:02:10.795Z,21.41
2018-08-13T08:03:10.786Z,21.54
2018-08-13T08:04:10.766Z,21.59
2018-08-13T08:05:10.754Z,21.60
2018-08-13T08:06:10.745Z,21.60
2018-08-13T08:07:10.730Z,21.69
2018-08-13T08:08:10.717Z,21.59
2018-08-13T08:09:10.736Z,21.58
2018-08-13T08:15:51.204Z,21.66
2018-08-13T08:16:51.194Z,21.75
2018-08-13T08:17:51.175Z,21.81
2018-08-13T08:18:51.176Z,21.77
2018-08-13T08:19:51.157Z,21.80
2018-08-13T08:20:51.148Z,21.74
2018-08-13T08:21:51.122Z,21.75
2018-08-13T08:22:51.118Z,21.70
2018-08-13T08:23:51.098Z,21.74
2018-08-13T08:24:51.237Z,21.70
2018-08-13T08:25:51.077Z,21.66
2018-08-13T08:26:51.059Z,21.70
2018-08-13T08:27:51.109Z,21.77
2018-08-13T08:28:51.041Z,21.68
2018-08-13T08:29:51.021Z,21.69
2018-08-13T08:30:51.009Z,21.62
2018-08-13T08:31:50.997Z,21.88
2018-08-13T08:32:50.985Z,21.72
2018-08-13T08:33:50.979Z,21.81
2018-08-13T08:34:50.989Z,21.88
2018-08-13T08:35:50.954Z,21.91
2018-08-13T08:36:50.933Z,21.92
2018-08-13T08:37:50.928Z,21.84
2018-08-13T08:38:50.908Z,21.84
2018-08-13T08:39:50.901Z,21.85
2018-08-13T08:40:51.097Z,21.81
2018-08-13T08:41:50.873Z,21.92
2018-08-13T08:42:50.862Z,22.00
2018-08-13T08:43:50.856Z,21.75
2018-08-13T08:44:50.834Z,21.63
2018-08-13T08:45:50.881Z,21.65
2018-08-13T08:46:50.809Z,21.59
2018-08-13T08:47:50.796Z,21.58
2018-08-13T08:48:50.785Z,21.66
2018-08-13T08:49:50.769Z,21.70
2018-08-13T08:50:50.756Z,21.68
2018-08-13T08:51:50.743Z,21.75
2018-08-13T08:52:50.741Z,21.66
2018-08-13T08:53:50.726Z,21.59
2018-08-13T08:54:50.706Z,21.59
2018-08-13T08:55:50.701Z,21.62
2018-08-13T08:56:50.691Z,21.62
2018-08-13T08:57:50.669Z,21.56
2018-08-13T08:58:50.658Z,21.68
2018-08-13T08:59:50.651Z,21.69
2018-08-13T09:00:50.628Z,21.65
2018-08-13T09:01:50.664Z,21.68
2018-08-13T09:02:50.605Z,21.77
2018-08-13T09:03:50.592Z,21.83
2018-08-13T09:04:50.583Z,21.83
2018-08-13T09:05:50.600Z,21.99
2018-08-13T09:06:50.555Z,22.12
2018-08-13T09:07:50.542Z,22.18
2018-08-13T09:08:50.531Z,22.15
2018-08-13T09:09:50.521Z,22.10
2018-08-13T09:10:50.504Z,21.96
2018-08-13T09:11:50.497Z,21.97
2018-08-13T09:12:50.482Z,22.01
2018-08-13T09:13:50.466Z,22.03
2018-08-13T09:14:50.453Z,22.07
2018-08-13T09:15:50.446Z,22.21
2018-08-13T09:16:50.431Z,22.19
2018-08-13T09:17:50.500Z,22.12
2018-08-13T09:18:50.450Z,22.01
2018-08-13T09:19:50.391Z,21.99
2018-08-13T09:20:50.386Z,21.81
2018-08-13T09:21:50.365Z,21.96
2018-08-13T09:22:50.353Z,21.96
2018-08-13T09:23:50.340Z,21.92
2018-08-13T09:24:50.330Z,21.77
2018-08-13T09:25:50.315Z,21.75
2018-08-13T09:26:50.319Z,21.77
2018-08-13T09:27:50.292Z,21.77
2018-08-13T09:28:50.288Z,21.77
2018-08-13T09:29:50.265Z,21.99
2018-08-13T09:30:50.250Z,21.94
2018-08-13T09:31:50.239Z,22.18
2018-08-13T09:32:50.230Z,22.19
2018-08-13T09:33:50.215Z,22.10
2018-08-13T09:34:50.199Z,22.12
2018-08-13T09:35:50.189Z,22.12
2018-08-13T09:36:50.236Z,22.12
2018-08-13T09:37:50.169Z,22.08
2018-08-13T09:38:50.158Z,22.12
2018-08-13T09:39:50.248Z,22.01
2018-08-13T09:40:50.128Z,22.00
2018-08-13T09:41:50.112Z,22.14
2018-08-13T09:42:50.099Z,22.22
2018-08-13T09:43:50.103Z,22.31
2018-08-13T09:44:50.082Z,22.36
2018-08-13T09:45:50.063Z,22.34
2018-08-13T09:46:50.050Z,22.36
2018-08-13T09:47:50.045Z,22.34
2018-08-13T09:48:50.023Z,22.40
2018-08-13T09:49:50.011Z,22.33
2018-08-13T09:50:50.009Z,22.36
2018-08-13T09:51:49.989Z,22.37
2018-08-13T09:52:49.978Z,22.30
2018-08-13T09:53:50.020Z,22.31
2018-08-13T09:54:49.947Z,22.31
2018-08-13T09:55:49.936Z,22.36
2018-08-13T09:56:49.922Z,22.51
2018-08-13T09:57:49.917Z,22.55
2018-08-13T09:58:49.899Z,22.63
2018-08-13T09:59:49.884Z,22.70
2018-08-13T10:00:49.909Z,22.74
2018-08-13T10:01:49.860Z,22.67
2018-08-13T10:02:49.847Z,22.84
2018-08-13T10:03:49.839Z,22.95
2018-08-13T10:04:49.831Z,22.83
2018-08-13T10:05:49.811Z,23.16
2018-08-13T10:06:49.798Z,23.55
2018-08-13T10:07:49.791Z,24.01
2018-08-13T10:08:49.783Z,24.43
2018-08-13T10:09:49.761Z,24.28
2018-08-13T10:10:49.814Z,24.55
2018-08-13T10:11:49.742Z,24.26
2018-08-13T10:12:49.732Z,24.07
2018-08-13T10:13:49.724Z,24.11
2018-08-13T10:14:49.708Z,24.13
2018-08-13T10:15:49.705Z,24.77
2018-08-13T10:16:49.782Z,24.77
2018-08-13T10:17:49.691Z,24.75
2018-08-13T10:18:49.669Z,24.94
2018-08-13T10:19:49.706Z,25.62
2018-08-13T10:20:49.653Z,26.44
2018-08-13T10:21:49.638Z,26.59
2018-08-13T10:22:49.637Z,27.04
2018-08-13T10:23:49.624Z,27.04
2018-08-13T10:24:49.613Z,26.68
2018-08-13T10:25:49.609Z,26.53
2018-08-13T10:26:49.603Z,26.36
2018-08-13T10:27:49.797Z,26.63
2018-08-13T10:28:49.586Z,27.10
2018-08-13T10:29:49.667Z,27.22
2018-08-13T10:30:49.580Z,27.07
2018-08-13T10:31:49.573Z,27.45
2018-08-13T10:32:49.565Z,28.28
2018-08-13T10:33:49.562Z,28.18
2018-08-13T10:34:49.559Z,28.01
2018-08-13T10:35:49.561Z,27.38
2018-08-13T10:36:49.550Z,26.97
2018-08-13T10:37:49.740Z,27.57
2018-08-13T10:38:49.552Z,28.46
2018-08-13T10:39:49.539Z,28.78
2018-08-13T10:40:49.543Z,29.13
2018-08-13T10:41:49.534Z,29.20
2018-08-13T10:42:49.536Z,29.58
2018-08-13T10:43:49.532Z,28.96
2018-08-13T10:44:49.634Z,28.86
2018-08-13T10:45:49.530Z,28.43
2018-08-13T10:46:49.534Z,29.21
2018-08-13T10:47:49.525Z,28.92
2018-08-13T10:48:49.533Z,29.40
2018-08-13T10:49:49.527Z,29.65
2018-08-13T10:50:49.590Z,29.65
2018-08-13T10:51:49.525Z,29.42
2018-08-13T10:52:49.523Z,29.57
2018-08-13T10:53:49.632Z,29.49
2018-08-13T10:54:49.525Z,29.21
2018-08-13T10:55:49.528Z,28.65
2018-08-13T10:56:49.530Z,28.40
2018-08-13T10:57:49.528Z,28.28
2018-08-13T10:58:49.530Z,27.98
2018-08-13T10:59:49.539Z,28.20
2018-08-13T11:00:49.531Z,27.61
2018-08-13T11:01:49.530Z,26.89
2018-08-13T11:02:49.575Z,26.98
2018-08-13T11:03:49.734Z,27.22
2018-08-13T11:04:49.529Z,26.98
2018-08-13T11:05:49.528Z,26.97
2018-08-13T11:06:49.528Z,27.60
2018-08-13T11:07:49.525Z,27.52
2018-08-13T11:08:49.527Z,27.10
2018-08-13T11:09:49.534Z,26.92
2018-08-13T11:10:49.523Z,26.63
2018-08-13T11:11:49.520Z,26.48
2018-08-13T11:12:49.517Z,27.33
2018-08-13T11:13:49.522Z,27.41
2018-08-13T11:14:49.512Z,27.44
2018-08-13T11:15:49.510Z,26.67
2018-08-13T11:16:49.513Z,26.39
2018-08-13T11:17:49.510Z,26.36
2018-08-13T11:18:49.501Z,26.42
2018-08-13T11:19:49.517Z,27.15
2018-08-13T11:20:49.504Z,27.26
2018-08-13T11:21:49.501Z,27.22
2018-08-13T11:22:49.499Z,27.13
2018-08-13T11:23:49.494Z,27.05
2018-08-13T11:24:49.481Z,27.10
2018-08-13T11:25:49.485Z,27.07
2018-08-13T11:26:49.481Z,26.88
2018-08-13T11:27:49.473Z,26.67
2018-08-13T11:28:49.468Z,26.64
2018-08-13T11:29:49.466Z,26.49
2018-08-13T11:30:49.459Z,26.92
2018-08-13T11:31:49.451Z,27.48
2018-08-13T11:32:49.448Z,27.90
2018-08-13T11:33:49.446Z,27.95
2018-08-13T11:34:49.587Z,27.63
2018-08-13T11:35:49.435Z,27.11
2018-08-13T11:36:49.433Z,26.68
2018-08-13T11:37:49.493Z,26.73
2018-08-13T11:38:49.426Z,27.58
2018-08-13T11:39:49.420Z,27.78
2018-08-13T11:40:49.422Z,27.38
2018-08-13T11:41:49.413Z,27.67
2018-08-13T11:42:49.410Z,27.52
2018-08-13T11:43:49.416Z,26.71
2018-08-13T11:44:49.404Z,26.22
2018-08-13T11:45:49.396Z,26.48
2018-08-13T11:46:49.394Z,27.19
2018-08-13T11:47:49.388Z,27.55
2018-08-13T11:48:49.387Z,27.98
2018-08-13T11:49:49.388Z,28.27
2018-08-13T11:50:49.526Z,27.55
2018-08-13T11:51:49.377Z,27.23
2018-08-13T11:52:49.371Z,26.76
2018-08-13T11:53:49.404Z,27.08
2018-08-13T11:54:49.359Z,27.04
2018-08-13T11:55:49.363Z,26.74
2018-08-13T11:56:49.356Z,26.86
2018-08-13T11:57:49.355Z,26.63
2018-08-13T11:58:49.355Z,26.73
2018-08-13T11:59:49.349Z,26.97
2018-08-13T12:00:49.340Z,27.61
2018-08-13T12:01:49.333Z,27.41
2018-08-13T12:02:49.333Z,27.61
2018-08-13T12:03:49.369Z,28.04
2018-08-13T12:04:49.325Z,28.10
2018-08-13T12:05:49.316Z,28.16
2018-08-13T12:06:49.567Z,27.50
2018-08-13T12:07:49.302Z,26.76
2018-08-13T12:08:49.306Z,26.55
2018-08-13T12:09:49.292Z,26.27
2018-08-13T12:10:49.283Z,26.51
2018-08-13T12:11:49.286Z,26.61
2018-08-13T12:12:49.274Z,26.70
2018-08-13T12:13:49.272Z,26.68
2018-08-13T12:14:49.271Z,26.73
2018-08-13T12:15:49.267Z,26.59
2018-08-13T12:16:49.245Z,26.67
2018-08-13T12:17:49.246Z,26.37
2018-08-13T12:18:49.239Z,26.49
2018-08-13T12:19:49.244Z,26.76
2018-08-13T12:20:49.223Z,26.79
2018-08-13T12:21:49.229Z,26.59
2018-08-13T12:22:49.209Z,26.41
2018-08-13T12:23:49.209Z,26.41
2018-08-13T12:24:49.228Z,26.61
2018-08-13T12:25:49.186Z,26.76
2018-08-13T12:26:49.182Z,26.68
2018-08-13T12:27:49.174Z,26.85
2018-08-13T12:28:49.175Z,26.97
2018-08-13T12:29:49.159Z,26.92
2018-08-13T12:30:49.151Z,27.05
2018-08-13T12:31:49.147Z,26.85
2018-08-13T12:32:49.133Z,26.64
2018-08-13T12:33:49.129Z,26.30
2018-08-13T12:34:49.133Z,26.24
2018-08-13T12:35:49.116Z,26.15
2018-08-13T12:36:49.113Z,26.16
2018-08-13T12:37:49.260Z,26.23
2018-08-13T12:38:49.091Z,26.63
2018-08-13T12:39:49.091Z,26.51
2018-08-13T12:40:49.079Z,26.24
2018-08-13T12:41:49.069Z,26.19
2018-08-13T12:42:49.065Z,26.41
2018-08-13T12:43:49.072Z,26.44
2018-08-13T12:44:49.046Z,26.52
2018-08-13T12:45:49.045Z,26.73
2018-08-13T12:46:49.029Z,26.52
2018-08-13T12:47:49.025Z,26.36
2018-08-13T12:48:49.017Z,26.31
2018-08-13T12:49:49.007Z,26.06
2018-08-13T12:50:48.999Z,26.04
2018-08-13T12:51:48.999Z,25.73
2018-08-13T12:52:48.987Z,25.70
2018-08-13T12:53:49.061Z,25.77
2018-08-13T12:54:48.966Z,25.76
2018-08-13T12:55:48.965Z,25.81
2018-08-13T12:56:48.953Z,25.80
2018-08-13T12:57:48.950Z,25.76